• Join FlightAware (Why Join?)
  • Login
  • US Flag 
06:01PM EDT


 

Airport Tracker/Info


-or-


 

Live Flight TrackerFlight Track Log ✈ AWE2690 ✈ 11-Sep-2013 ✈ KCLT - KIND

Flight Track Log - Related Links

Times and Time Zones

All times are in EDT time to prevent confusion due to time zone crossing. See the AWE2690 flight status page for this flight to view local times or setup timezone preferences in your user account.

Time Position Orientation Groundspeed Altitude Reporting Facility
EDT Latitude Longitude Course Direction KTS MPH feet Rate Location/Type
01:43PM 35.1933 -80.9533 13° North 175 201 1,500  Level Atlanta Center
01:43PM 35.1789 -80.9539 182° South 172 198 2,300 1,740 Climbing Atlanta Center
01:44PM 35.1275 -80.9939 212° Southwest 270 311 4,000 2,100 Climbing Atlanta Center
01:45PM 35.1692 -81.0711 303° West 283 326 6,800 2,640 Climbing Atlanta Center
01:45PM 35.1711 -81.0711 360° North 290 334 6,700 2,880 Descending Atlanta Center
01:46PM 35.3778 -81.0183 52° Northeast  Level FlightAware Approximate
01:46PM 35.2364 -81.0917 346° North 266 306 9,700  Level Atlanta Center
01:46PM 35.2406 -81.0914 North 278 320 9,600 1,380 Descending Atlanta Center
01:47PM 35.4686 -80.9514 13° North  Level FlightAware Approximate
01:47PM 35.3106 -81.0483 27° Northeast 304 350 11,100  Level Atlanta Center
01:48PM 35.5766 -80.9197 13° North  Level FlightAware Approximate
01:48PM 35.3969 -80.9992 25° Northeast 338 389 12,700  Level Atlanta Center
01:49PM 35.4878 -81.0469 337° Northwest 325 374 14,800 1,980 Climbing Atlanta Center
01:50PM 35.5750 -81.1128 328° Northwest 342 394 16,700 1,500 Climbing Atlanta Center
01:51PM 35.6683 -81.1833 328° Northwest 365 420 17,900 1,380 Climbing Atlanta Center
01:52PM 35.7558 -81.2647 323° Northwest 402 463 19,500 1,500 Climbing Atlanta Center
01:53PM 35.8472 -81.3411 326° Northwest 402 463 21,000 1,500 Climbing Atlanta Center
01:54PM 35.9447 -81.4175 328° Northwest 413 475 22,500 1,320 Climbing Atlanta Center
01:55PM 36.0403 -81.4964 326° Northwest 413 475 23,700 1,140 Climbing Atlanta Center
01:56PM 36.1314 -81.5631 329° Northwest 413 475 24,800 900 Climbing Atlanta Center
01:57PM 36.2128 -81.6711 313° West 418 481 25,600 960 Climbing Atlanta Center
01:58PM 36.2903 -81.7978 307° West 445 512 26,800 1,260 Climbing Atlanta Center
01:59PM 36.3447 -81.9303 297° West 445 512 28,200 1,200 Climbing Atlanta Center
02:00PM 36.3886 -82.0736 291° West 445 512 29,300 1,140 Climbing Atlanta Center
02:01PM 36.4517 -82.2242 298° West 445 512 30,500 1,200 Climbing Atlanta Center
02:02PM 36.5161 -82.3622 300° West 445 512 31,800 1,200 Climbing Atlanta Center
02:03PM 36.5742 -82.4903 299° West 445 512 32,900 960 Climbing Atlanta Center
02:04PM 36.6342 -82.6236 299° West 445 512 33,800 540 Climbing Atlanta Center
02:05PM 36.6939 -82.7597 299° West 445 512 34,000 60 Climbing Atlanta Center
02:07PM 36.7589 -82.9278 296° West 479 551 34,000  Level Indianapolis Center
02:08PM 36.8008 -83.0831 289° West 466 536 34,000  Level Indianapolis Center
02:09PM 36.8658 -83.2197 301° West 459 528 34,000  Level Indianapolis Center
02:10PM 36.9542 -83.3378 313° West 461 531 34,000  Level Indianapolis Center
02:11PM 37.0425 -83.4564 313° West 463 533 34,000  Level Indianapolis Center
02:12PM 37.1317 -83.5778 313° West 469 540 34,000  Level Indianapolis Center
02:13PM 37.2361 -83.7203 313° West 471 542 34,000  Level Indianapolis Center
02:14PM 37.3250 -83.8439 312° West 474 545 34,000  Level Indianapolis Center
02:15PM 37.4142 -83.9664 313° West 475 547 34,000  Level Indianapolis Center
02:16PM 37.5025 -84.0900 312° West 474 545 34,000  Level Indianapolis Center
02:17PM 37.5844 -84.2172 309° West 469 540 34,000  Level Indianapolis Center
02:18PM 37.6608 -84.3500 306° West 467 537 34,000 -300 Level Indianapolis Center
02:19PM 37.7386 -84.4819 307° West 466 536 33,400 -1,020 Descending Indianapolis Center
02:20PM 37.8306 -84.6392 307° West 473 544 32,000 -1,320 Descending Indianapolis Center
02:21PM 37.9111 -84.7747 307° West 479 551 30,800 -1,020 Descending Indianapolis Center
02:22PM 37.9917 -84.9114 307° West 483 556 30,000 -420 Descending Indianapolis Center
02:23PM 38.0678 -85.0444 306° West 470 541 30,000  Level Indianapolis Center
02:24PM 38.1453 -85.1733 307° West 459 528 30,000  Level Indianapolis Center
02:25PM 38.2211 -85.3089 305° West 454 522 30,000 -60 Level Indianapolis Center
02:26PM 38.2967 -85.4414 306° West 460 529 29,900 -840 Descending Indianapolis Center
02:27PM 38.3739 -85.5769 306° West 472 543 28,300 -1,500 Descending Indianapolis Center
02:28PM 38.4514 -85.7114 306° West 475 547 26,800 -2,100 Descending Indianapolis Center
02:29PM 38.5253 -85.8425 306° West 463 533 24,000 -3,420 Descending Indianapolis Center
02:30PM 38.6106 -85.9931 306° West 444 511 19,800 -2,940 Descending Indianapolis Center
02:31PM 38.6792 -86.1139 306° West 428 493 18,000 -900 Descending Indianapolis Center
02:32PM 38.7444 -86.2328 305° West 416 479 18,000 -60 Level Indianapolis Center
02:33PM 38.8106 -86.3494 306° West 410 472 17,900 -780 Descending Indianapolis Center
02:34PM 38.8744 -86.4664 305° West 405 466 16,500 -1,500 Descending Indianapolis Center
02:35PM 38.9389 -86.5819 306° West 396 456 14,900 -1,620 Descending Indianapolis Center
02:36PM 38.9981 -86.6883 306° West 384 442 13,300 -1,620 Descending Indianapolis Center
02:38PM 39.0686 -86.8172 305° West 374 430 11,600 -1,140 Descending Indianapolis Center
02:39PM 39.1664 -86.8533 344° North 379 436 11,000 -300 Descending Indianapolis Center
02:40PM 39.2597 -86.7867 29° Northeast 379 436 11,000  Level Indianapolis Center
02:41PM 39.3561 -86.7147 30° Northeast 396 456 11,000 -240 Level Indianapolis Center
02:42PM 39.4286 -86.6314 42° Northeast 353 406 10,600 -900 Descending Indianapolis Center
02:43PM 39.4850 -86.5492 48° Northeast 325 374 9,200 -1,500 Descending Indianapolis Center
02:44PM 39.5419 -86.4717 46° Northeast 310 357 7,500 -1,080 Descending Indianapolis Center
02:45PM 39.6092 -86.3769 47° Northeast 301 346 7,000 -300 Descending Indianapolis Center
02:46PM 39.6650 -86.2989 47° Northeast 300 345 7,000  Level Indianapolis Center
02:47PM 39.7181 -86.2261 47° Northeast 292 336 7,000 -540 Level Indianapolis Center
02:48PM 39.7711 -86.1556 46° Northeast 284 327 6,000 -1,080 Descending Indianapolis Center
02:49PM 39.8375 -86.0833 40° Northeast 277 319 4,800 -1,380 Descending Indianapolis Center
02:50PM 39.8594 -86.1394 297° West 237 273 3,200 -1,080 Descending Indianapolis Center
02:51PM 39.8114 -86.1850 216° Southwest 223 257 2,600 -540 Descending Indianapolis Center
02:52PM 39.7753 -86.2339 226° Southwest 202 232 2,100 -660 Descending Indianapolis Center
02:53PM 39.7447 -86.2725 224° Southwest 171 197 1,300 -660 Descending Indianapolis Center
02:54PM 39.7172 -86.3103 227° Southwest 148 170 800 -300 Descending Indianapolis Center
02:55PM 39.7142 -86.3075 145° Southeast 85 98 800  Level Indianapolis Center
02:56PM 39.7189 -86.3014 45° Northeast 43 49 800  Level Indianapolis Center
02:57PM 39.7200 -86.2967 73° East 26 30 800  Level Indianapolis Center
02:58PM 39.7169 -86.2953 161° South 14 16 800 -60 Level Indianapolis Center
02:59PM 39.7153 -86.2967 213° Southwest 13 15 700 -120 Descending Indianapolis Center